sensor_id;sensor_type;location;lat;lon;timestamp;P1;durP1;ratioP1;P2;durP2;ratioP2
36411;SDS011;22445;52.100;5.176;2023-02-03T00:00:18;13.95;;;3.28;;
36411;SDS011;22445;52.100;5.176;2023-02-03T00:02:44;8.13;;;2.15;;
36411;SDS011;22445;52.100;5.176;2023-02-03T00:05:09;11.80;;;2.72;;
36411;SDS011;22445;52.100;5.176;2023-02-03T00:07:35;10.00;;;2.75;;
36411;SDS011;22445;52.100;5.176;2023-02-03T00:10:02;10.15;;;2.70;;
36411;SDS011;22445;52.100;5.176;2023-02-03T00:12:28;13.70;;;3.47;;
36411;SDS011;22445;52.100;5.176;2023-02-03T00:14:53;8.82;;;2.45;;
36411;SDS011;22445;52.100;5.176;2023-02-03T00:17:19;11.40;;;2.80;;
36411;SDS011;22445;52.100;5.176;2023-02-03T00:19:44;10.52;;;3.00;;
36411;SDS011;22445;52.100;5.176;2023-02-03T00:22:10;9.25;;;2.90;;
36411;SDS011;22445;52.100;5.176;2023-02-03T00:24:35;15.40;;;3.63;;
36411;SDS011;22445;52.100;5.176;2023-02-03T00:27:01;7.93;;;2.70;;
36411;SDS011;22445;52.100;5.176;2023-02-03T00:29:26;13.25;;;2.78;;
36411;SDS011;22445;52.100;5.176;2023-02-03T00:31:52;14.90;;;2.30;;
36411;SDS011;22445;52.100;5.176;2023-02-03T00:34:18;14.23;;;3.22;;
36411;SDS011;22445;52.100;5.176;2023-02-03T00:36:44;12.50;;;2.92;;
36411;SDS011;22445;52.100;5.176;2023-02-03T00:39:12;17.65;;;2.83;;
36411;SDS011;22445;52.100;5.176;2023-02-03T00:41:39;14.02;;;2.72;;
36411;SDS011;22445;52.100;5.176;2023-02-03T00:44:05;12.55;;;2.72;;
36411;SDS011;22445;52.100;5.176;2023-02-03T00:46:30;11.13;;;3.03;;
36411;SDS011;22445;52.100;5.176;2023-02-03T00:48:55;10.85;;;2.95;;
36411;SDS011;22445;52.100;5.176;2023-02-03T00:51:21;13.77;;;2.75;;
36411;SDS011;22445;52.100;5.176;2023-02-03T00:53:47;8.52;;;2.55;;
36411;SDS011;22445;52.100;5.176;2023-02-03T00:56:13;10.38;;;2.03;;
36411;SDS011;22445;52.100;5.176;2023-02-03T00:58:38;12.35;;;2.75;;
36411;SDS011;22445;52.100;5.176;2023-02-03T01:01:04;9.55;;;2.72;;
36411;SDS011;22445;52.100;5.176;2023-02-03T01:03:30;11.90;;;2.70;;
36411;SDS011;22445;52.100;5.176;2023-02-03T01:05:56;11.27;;;2.78;;
36411;SDS011;22445;52.100;5.176;2023-02-03T01:08:21;11.38;;;3.38;;
36411;SDS011;22445;52.100;5.176;2023-02-03T01:10:47;11.80;;;2.58;;
36411;SDS011;22445;52.100;5.176;2023-02-03T01:13:13;10.60;;;2.45;;
36411;SDS011;22445;52.100;5.176;2023-02-03T01:15:46;10.82;;;2.63;;
36411;SDS011;22445;52.100;5.176;2023-02-03T01:18:12;12.48;;;2.60;;
36411;SDS011;22445;52.100;5.176;2023-02-03T01:20:37;10.65;;;2.75;;
36411;SDS011;22445;52.100;5.176;2023-02-03T01:23:03;10.43;;;2.97;;
36411;SDS011;22445;52.100;5.176;2023-02-03T01:25:28;12.30;;;3.47;;
36411;SDS011;22445;52.100;5.176;2023-02-03T01:27:54;7.88;;;2.28;;
36411;SDS011;22445;52.100;5.176;2023-02-03T01:30:20;7.55;;;2.17;;
36411;SDS011;22445;52.100;5.176;2023-02-03T01:32:45;14.52;;;2.53;;
36411;SDS011;22445;52.100;5.176;2023-02-03T01:35:11;12.20;;;2.30;;
36411;SDS011;22445;52.100;5.176;2023-02-03T01:37:36;10.30;;;2.38;;
36411;SDS011;22445;52.100;5.176;2023-02-03T01:40:02;9.65;;;2.38;;
36411;SDS011;22445;52.100;5.176;2023-02-03T01:42:30;12.77;;;2.75;;
36411;SDS011;22445;52.100;5.176;2023-02-03T01:44:58;14.00;;;2.38;;
36411;SDS011;22445;52.100;5.176;2023-02-03T01:50:15;10.68;;;2.60;;
36411;SDS011;22445;52.100;5.176;2023-02-03T01:52:44;8.93;;;2.35;;
36411;SDS011;22445;52.100;5.176;2023-02-03T01:55:14;9.07;;;2.13;;
36411;SDS011;22445;52.100;5.176;2023-02-03T01:57:46;10.52;;;2.20;;
36411;SDS011;22445;52.100;5.176;2023-02-03T02:00:15;10.13;;;2.00;;
36411;SDS011;22445;52.100;5.176;2023-02-03T02:02:41;9.13;;;2.03;;
36411;SDS011;22445;52.100;5.176;2023-02-03T02:05:13;14.18;;;2.55;;
36411;SDS011;22445;52.100;5.176;2023-02-03T02:07:42;10.80;;;2.03;;
36411;SDS011;22445;52.100;5.176;2023-02-03T02:10:09;12.80;;;2.22;;
36411;SDS011;22445;52.100;5.176;2023-02-03T02:12:35;13.05;;;2.58;;
36411;SDS011;22445;52.100;5.176;2023-02-03T02:15:01;10.90;;;1.92;;
36411;SDS011;22445;52.100;5.176;2023-02-03T02:20:37;9.50;;;1.60;;
36411;SDS011;22445;52.100;5.176;2023-02-03T02:39:36;8.30;;;1.92;;
36411;SDS011;22445;52.100;5.176;2023-02-03T02:42:13;6.38;;;0.95;;
36411;SDS011;22445;52.100;5.176;2023-02-03T02:44:54;9.02;;;1.52;;
36411;SDS011;22445;52.100;5.176;2023-02-03T02:47:22;5.82;;;1.60;;
36411;SDS011;22445;52.100;5.176;2023-02-03T02:52:45;5.10;;;1.40;;
36411;SDS011;22445;52.100;5.176;2023-02-03T02:55:16;5.78;;;1.50;;
36411;SDS011;22445;52.100;5.176;2023-02-03T02:57:48;9.63;;;1.50;;
36411;SDS011;22445;52.100;5.176;2023-02-03T03:00:15;5.88;;;1.23;;
36411;SDS011;22445;52.100;5.176;2023-02-03T03:02:41;5.57;;;1.30;;
36411;SDS011;22445;52.100;5.176;2023-02-03T03:05:07;6.72;;;1.40;;
36411;SDS011;22445;52.100;5.176;2023-02-03T03:07:35;9.05;;;1.67;;
36411;SDS011;22445;52.100;5.176;2023-02-03T03:10:07;10.07;;;2.22;;
36411;SDS011;22445;52.100;5.176;2023-02-03T03:12:36;8.80;;;1.52;;
36411;SDS011;22445;52.100;5.176;2023-02-03T03:15:09;7.97;;;1.55;;
36411;SDS011;22445;52.100;5.176;2023-02-03T03:17:43;8.68;;;2.00;;
36411;SDS011;22445;52.100;5.176;2023-02-03T03:20:14;7.57;;;1.58;;
36411;SDS011;22445;52.100;5.176;2023-02-03T03:22:44;8.30;;;1.92;;
36411;SDS011;22445;52.100;5.176;2023-02-03T03:25:15;4.82;;;1.50;;
36411;SDS011;22445;52.100;5.176;2023-02-03T03:27:50;7.88;;;1.90;;
36411;SDS011;22445;52.100;5.176;2023-02-03T03:30:22;7.55;;;2.00;;
36411;SDS011;22445;52.100;5.176;2023-02-03T03:32:50;10.10;;;2.00;;
36411;SDS011;22445;52.100;5.176;2023-02-03T03:35:16;6.53;;;2.00;;
36411;SDS011;22445;52.100;5.176;2023-02-03T03:37:49;7.55;;;1.95;;
36411;SDS011;22445;52.100;5.176;2023-02-03T03:40:21;8.20;;;2.10;;
36411;SDS011;22445;52.100;5.176;2023-02-03T03:42:50;6.80;;;1.73;;
36411;SDS011;22445;52.100;5.176;2023-02-03T03:51:28;6.40;;;1.38;;
36411;SDS011;22445;52.100;5.176;2023-02-03T03:53:57;7.47;;;1.67;;
36411;SDS011;22445;52.100;5.176;2023-02-03T03:56:27;10.85;;;2.17;;
36411;SDS011;22445;52.100;5.176;2023-02-03T03:58:56;9.35;;;1.65;;
36411;SDS011;22445;52.100;5.176;2023-02-03T04:01:23;6.25;;;1.40;;
36411;SDS011;22445;52.100;5.176;2023-02-03T04:03:57;4.70;;;1.58;;
36411;SDS011;22445;52.100;5.176;2023-02-03T04:06:25;4.70;;;1.15;;
36411;SDS011;22445;52.100;5.176;2023-02-03T04:08:50;6.22;;;1.50;;
36411;SDS011;22445;52.100;5.176;2023-02-03T04:11:16;7.43;;;1.20;;
36411;SDS011;22445;52.100;5.176;2023-02-03T04:14:02;6.15;;;1.50;;
36411;SDS011;22445;52.100;5.176;2023-02-03T04:16:28;6.82;;;1.55;;
36411;SDS011;22445;52.100;5.176;2023-02-03T04:18:53;6.57;;;1.45;;
36411;SDS011;22445;52.100;5.176;2023-02-03T04:21:19;8.80;;;1.45;;
36411;SDS011;22445;52.100;5.176;2023-02-03T04:23:44;6.75;;;1.30;;
36411;SDS011;22445;52.100;5.176;2023-02-03T04:26:10;3.90;;;1.20;;
36411;SDS011;22445;52.100;5.176;2023-02-03T04:28:35;11.27;;;1.58;;
36411;SDS011;22445;52.100;5.176;2023-02-03T04:31:01;8.90;;;1.50;;
36411;SDS011;22445;52.100;5.176;2023-02-03T04:33:26;5.35;;;1.42;;
36411;SDS011;22445;52.100;5.176;2023-02-03T04:35:52;10.02;;;1.45;;
36411;SDS011;22445;52.100;5.176;2023-02-03T04:38:17;7.30;;;1.20;;
36411;SDS011;22445;52.100;5.176;2023-02-03T04:40:43;3.10;;;1.05;;
36411;SDS011;22445;52.100;5.176;2023-02-03T04:43:10;3.75;;;1.20;;
36411;SDS011;22445;52.100;5.176;2023-02-03T04:45:36;10.93;;;1.50;;
36411;SDS011;22445;52.100;5.176;2023-02-03T04:48:02;7.60;;;1.25;;
36411;SDS011;22445;52.100;5.176;2023-02-03T04:50:30;8.90;;;1.08;;
36411;SDS011;22445;52.100;5.176;2023-02-03T04:52:56;6.72;;;1.50;;
36411;SDS011;22445;52.100;5.176;2023-02-03T04:55:25;8.23;;;1.30;;
36411;SDS011;22445;52.100;5.176;2023-02-03T04:57:58;7.82;;;1.52;;
36411;SDS011;22445;52.100;5.176;2023-02-03T05:00:24;6.80;;;1.33;;
36411;SDS011;22445;52.100;5.176;2023-02-03T05:02:51;4.55;;;1.02;;
36411;SDS011;22445;52.100;5.176;2023-02-03T05:05:16;11.75;;;1.73;;
36411;SDS011;22445;52.100;5.176;2023-02-03T05:07:42;9.23;;;1.30;;
36411;SDS011;22445;52.100;5.176;2023-02-03T05:10:07;5.65;;;1.52;;
36411;SDS011;22445;52.100;5.176;2023-02-03T05:12:33;7.80;;;1.45;;
36411;SDS011;22445;52.100;5.176;2023-02-03T05:14:59;8.18;;;1.45;;
36411;SDS011;22445;52.100;5.176;2023-02-03T05:17:24;8.65;;;1.67;;
36411;SDS011;22445;52.100;5.176;2023-02-03T05:19:50;7.65;;;1.15;;
36411;SDS011;22445;52.100;5.176;2023-02-03T05:22:16;7.25;;;1.52;;
36411;SDS011;22445;52.100;5.176;2023-02-03T05:24:41;9.18;;;1.60;;
36411;SDS011;22445;52.100;5.176;2023-02-03T05:27:07;5.05;;;1.42;;
36411;SDS011;22445;52.100;5.176;2023-02-03T05:29:32;4.70;;;1.23;;
36411;SDS011;22445;52.100;5.176;2023-02-03T05:31:58;9.63;;;1.52;;
36411;SDS011;22445;52.100;5.176;2023-02-03T05:34:23;8.15;;;1.30;;
36411;SDS011;22445;52.100;5.176;2023-02-03T05:36:49;7.85;;;1.45;;
36411;SDS011;22445;52.100;5.176;2023-02-03T05:39:14;5.43;;;1.65;;
36411;SDS011;22445;52.100;5.176;2023-02-03T05:41:40;6.10;;;1.38;;
36411;SDS011;22445;52.100;5.176;2023-02-03T05:44:21;4.80;;;1.33;;
36411;SDS011;22445;52.100;5.176;2023-02-03T05:46:48;7.80;;;1.50;;
36411;SDS011;22445;52.100;5.176;2023-02-03T05:49:14;7.60;;;1.50;;
36411;SDS011;22445;52.100;5.176;2023-02-03T05:51:40;8.20;;;1.55;;
36411;SDS011;22445;52.100;5.176;2023-02-03T05:54:06;8.32;;;1.58;;
36411;SDS011;22445;52.100;5.176;2023-02-03T05:56:32;6.40;;;1.40;;
36411;SDS011;22445;52.100;5.176;2023-02-03T05:58:57;3.85;;;1.20;;
36411;SDS011;22445;52.100;5.176;2023-02-03T06:01:23;10.60;;;1.85;;
36411;SDS011;22445;52.100;5.176;2023-02-03T06:03:48;9.02;;;1.52;;
36411;SDS011;22445;52.100;5.176;2023-02-03T06:06:14;4.80;;;1.20;;
36411;SDS011;22445;52.100;5.176;2023-02-03T06:08:41;13.52;;;2.20;;
36411;SDS011;22445;52.100;5.176;2023-02-03T06:11:07;9.48;;;1.48;;
36411;SDS011;22445;52.100;5.176;2023-02-03T06:13:34;8.60;;;1.55;;
36411;SDS011;22445;52.100;5.176;2023-02-03T06:15:59;7.35;;;1.45;;
36411;SDS011;22445;52.100;5.176;2023-02-03T06:18:25;11.35;;;1.73;;
36411;SDS011;22445;52.100;5.176;2023-02-03T06:20:50;8.52;;;1.23;;
36411;SDS011;22445;52.100;5.176;2023-02-03T06:23:16;7.00;;;1.45;;
36411;SDS011;22445;52.100;5.176;2023-02-03T06:25:43;6.35;;;1.15;;
36411;SDS011;22445;52.100;5.176;2023-02-03T06:28:09;8.05;;;1.92;;
36411;SDS011;22445;52.100;5.176;2023-02-03T06:30:35;11.70;;;1.77;;
36411;SDS011;22445;52.100;5.176;2023-02-03T06:33:01;9.10;;;2.08;;
36411;SDS011;22445;52.100;5.176;2023-02-03T06:35:26;7.38;;;1.98;;
36411;SDS011;22445;52.100;5.176;2023-02-03T06:37:52;10.00;;;1.60;;
36411;SDS011;22445;52.100;5.176;2023-02-03T06:40:18;7.13;;;1.60;;
36411;SDS011;22445;52.100;5.176;2023-02-03T06:42:44;11.57;;;2.22;;
36411;SDS011;22445;52.100;5.176;2023-02-03T06:45:12;14.85;;;1.60;;
36411;SDS011;22445;52.100;5.176;2023-02-03T06:47:42;5.82;;;1.60;;
36411;SDS011;22445;52.100;5.176;2023-02-03T06:50:08;7.43;;;2.08;;
36411;SDS011;22445;52.100;5.176;2023-02-03T06:52:36;9.18;;;1.80;;
36411;SDS011;22445;52.100;5.176;2023-02-03T06:55:02;9.27;;;1.75;;
36411;SDS011;22445;52.100;5.176;2023-02-03T06:57:28;8.48;;;2.00;;
36411;SDS011;22445;52.100;5.176;2023-02-03T06:59:54;7.85;;;1.60;;
36411;SDS011;22445;52.100;5.176;2023-02-03T07:02:19;11.50;;;2.00;;
36411;SDS011;22445;52.100;5.176;2023-02-03T07:04:45;6.53;;;1.85;;
36411;SDS011;22445;52.100;5.176;2023-02-03T07:07:11;7.60;;;1.92;;
36411;SDS011;22445;52.100;5.176;2023-02-03T07:09:37;11.38;;;2.22;;
36411;SDS011;22445;52.100;5.176;2023-02-03T07:12:06;6.50;;;2.33;;
36411;SDS011;22445;52.100;5.176;2023-02-03T07:14:32;7.60;;;2.05;;
36411;SDS011;22445;52.100;5.176;2023-02-03T07:17:00;9.93;;;1.60;;
36411;SDS011;22445;52.100;5.176;2023-02-03T07:19:27;13.23;;;2.25;;
36411;SDS011;22445;52.100;5.176;2023-02-03T07:21:53;6.00;;;1.58;;
36411;SDS011;22445;52.100;5.176;2023-02-03T07:24:18;10.18;;;2.15;;
36411;SDS011;22445;52.100;5.176;2023-02-03T07:26:44;18.38;;;2.53;;
36411;SDS011;22445;52.100;5.176;2023-02-03T07:29:09;9.07;;;2.03;;
36411;SDS011;22445;52.100;5.176;2023-02-03T07:31:35;8.82;;;2.08;;
36411;SDS011;22445;52.100;5.176;2023-02-03T07:34:02;8.85;;;1.98;;
36411;SDS011;22445;52.100;5.176;2023-02-03T07:36:27;9.73;;;2.65;;
36411;SDS011;22445;52.100;5.176;2023-02-03T07:38:53;7.90;;;1.35;;
36411;SDS011;22445;52.100;5.176;2023-02-03T07:41:19;9.73;;;1.98;;
36411;SDS011;22445;52.100;5.176;2023-02-03T07:43:44;12.15;;;2.30;;
36411;SDS011;22445;52.100;5.176;2023-02-03T07:46:10;6.43;;;1.55;;
36411;SDS011;22445;52.100;5.176;2023-02-03T07:48:36;8.75;;;1.50;;
36411;SDS011;22445;52.100;5.176;2023-02-03T07:51:01;9.15;;;1.80;;
36411;SDS011;22445;52.100;5.176;2023-02-03T07:53:27;8.90;;;2.10;;
36411;SDS011;22445;52.100;5.176;2023-02-03T07:55:53;13.52;;;2.10;;
36411;SDS011;22445;52.100;5.176;2023-02-03T07:58:18;13.68;;;2.47;;
36411;SDS011;22445;52.100;5.176;2023-02-03T08:00:44;11.90;;;2.50;;
36411;SDS011;22445;52.100;5.176;2023-02-03T08:03:09;9.82;;;1.98;;
36411;SDS011;22445;52.100;5.176;2023-02-03T08:05:35;11.48;;;2.28;;
36411;SDS011;22445;52.100;5.176;2023-02-03T08:08:01;13.13;;;2.30;;
36411;SDS011;22445;52.100;5.176;2023-02-03T08:10:26;9.23;;;2.30;;
36411;SDS011;22445;52.100;5.176;2023-02-03T08:12:52;9.27;;;1.90;;
36411;SDS011;22445;52.100;5.176;2023-02-03T08:15:18;9.88;;;2.45;;
36411;SDS011;22445;52.100;5.176;2023-02-03T08:17:44;11.60;;;2.08;;
36411;SDS011;22445;52.100;5.176;2023-02-03T08:20:10;6.47;;;1.90;;
36411;SDS011;22445;52.100;5.176;2023-02-03T08:22:36;6.63;;;1.95;;
36411;SDS011;22445;52.100;5.176;2023-02-03T08:25:02;12.13;;;2.10;;
36411;SDS011;22445;52.100;5.176;2023-02-03T08:27:28;7.85;;;1.77;;
36411;SDS011;22445;52.100;5.176;2023-02-03T08:29:53;10.25;;;1.75;;
36411;SDS011;22445;52.100;5.176;2023-02-03T08:32:19;6.85;;;1.85;;
36411;SDS011;22445;52.100;5.176;2023-02-03T08:34:46;6.45;;;1.88;;
36411;SDS011;22445;52.100;5.176;2023-02-03T08:37:13;12.63;;;2.42;;
36411;SDS011;22445;52.100;5.176;2023-02-03T08:39:40;5.95;;;1.77;;
36411;SDS011;22445;52.100;5.176;2023-02-03T08:42:05;12.85;;;2.25;;
36411;SDS011;22445;52.100;5.176;2023-02-03T08:44:32;6.97;;;1.95;;
36411;SDS011;22445;52.100;5.176;2023-02-03T08:46:58;7.53;;;1.83;;
36411;SDS011;22445;52.100;5.176;2023-02-03T08:49:25;14.07;;;2.33;;
36411;SDS011;22445;52.100;5.176;2023-02-03T08:51:52;6.65;;;2.05;;
36411;SDS011;22445;52.100;5.176;2023-02-03T08:54:17;9.98;;;2.15;;
36411;SDS011;22445;52.100;5.176;2023-02-03T08:56:43;10.95;;;2.13;;
36411;SDS011;22445;52.100;5.176;2023-02-03T08:59:08;8.48;;;2.55;;
36411;SDS011;22445;52.100;5.176;2023-02-03T09:01:34;7.13;;;1.98;;
36411;SDS011;22445;52.100;5.176;2023-02-03T09:04:00;7.22;;;2.17;;
36411;SDS011;22445;52.100;5.176;2023-02-03T09:06:28;12.63;;;2.05;;
36411;SDS011;22445;52.100;5.176;2023-02-03T09:08:55;7.80;;;1.65;;
36411;SDS011;22445;52.100;5.176;2023-02-03T09:11:21;5.95;;;1.52;;
36411;SDS011;22445;52.100;5.176;2023-02-03T09:13:47;10.25;;;2.55;;
36411;SDS011;22445;52.100;5.176;2023-02-03T09:16:14;7.32;;;2.17;;
36411;SDS011;22445;52.100;5.176;2023-02-03T09:18:44;9.00;;;2.05;;
36411;SDS011;22445;52.100;5.176;2023-02-03T09:21:10;12.13;;;2.42;;
36411;SDS011;22445;52.100;5.176;2023-02-03T09:23:36;12.48;;;1.80;;
36411;SDS011;22445;52.100;5.176;2023-02-03T09:26:02;10.27;;;1.80;;
36411;SDS011;22445;52.100;5.176;2023-02-03T09:28:29;8.05;;;1.70;;
36411;SDS011;22445;52.100;5.176;2023-02-03T09:30:58;4.43;;;1.45;;
36411;SDS011;22445;52.100;5.176;2023-02-03T09:33:25;9.85;;;2.08;;
36411;SDS011;22445;52.100;5.176;2023-02-03T09:35:54;10.57;;;1.98;;
36411;SDS011;22445;52.100;5.176;2023-02-03T09:38:20;9.65;;;1.67;;
36411;SDS011;22445;52.100;5.176;2023-02-03T09:46:55;9.25;;;2.22;;
36411;SDS011;22445;52.100;5.176;2023-02-03T09:49:26;6.55;;;1.73;;
36411;SDS011;22445;52.100;5.176;2023-02-03T09:52:31;6.85;;;1.33;;
36411;SDS011;22445;52.100;5.176;2023-02-03T09:55:06;10.07;;;2.10;;
36411;SDS011;22445;52.100;5.176;2023-02-03T09:57:41;10.55;;;1.75;;
36411;SDS011;22445;52.100;5.176;2023-02-03T10:00:33;10.93;;;1.98;;
36411;SDS011;22445;52.100;5.176;2023-02-03T10:03:36;6.68;;;1.70;;
36411;SDS011;22445;52.100;5.176;2023-02-03T10:15:38;7.13;;;1.80;;
36411;SDS011;22445;52.100;5.176;2023-02-03T10:18:30;8.52;;;1.88;;
36411;SDS011;22445;52.100;5.176;2023-02-03T10:21:31;9.05;;;1.60;;
36411;SDS011;22445;52.100;5.176;2023-02-03T10:27:31;6.15;;;1.67;;
36411;SDS011;22445;52.100;5.176;2023-02-03T10:30:02;7.65;;;1.85;;
36411;SDS011;22445;52.100;5.176;2023-02-03T10:32:30;9.13;;;1.60;;
36411;SDS011;22445;52.100;5.176;2023-02-03T10:34:57;12.20;;;1.70;;
36411;SDS011;22445;52.100;5.176;2023-02-03T10:40:12;9.55;;;1.65;;
36411;SDS011;22445;52.100;5.176;2023-02-03T10:42:38;12.52;;;2.22;;
36411;SDS011;22445;52.100;5.176;2023-02-03T10:45:22;9.55;;;1.80;;
36411;SDS011;22445;52.100;5.176;2023-02-03T10:47:50;8.73;;;1.80;;
36411;SDS011;22445;52.100;5.176;2023-02-03T10:50:20;9.73;;;1.75;;
36411;SDS011;22445;52.100;5.176;2023-02-03T10:52:48;9.25;;;1.83;;
36411;SDS011;22445;52.100;5.176;2023-02-03T10:58:21;8.90;;;1.95;;
36411;SDS011;22445;52.100;5.176;2023-02-03T11:01:02;9.57;;;1.80;;
36411;SDS011;22445;52.100;5.176;2023-02-03T11:03:30;8.55;;;1.98;;
36411;SDS011;22445;52.100;5.176;2023-02-03T11:06:15;5.63;;;1.65;;
36411;SDS011;22445;52.100;5.176;2023-02-03T11:08:44;6.32;;;1.83;;
36411;SDS011;22445;52.100;5.176;2023-02-03T11:11:13;6.00;;;1.30;;
36411;SDS011;22445;52.100;5.176;2023-02-03T11:13:40;4.50;;;1.33;;
36411;SDS011;22445;52.100;5.176;2023-02-03T11:16:08;9.80;;;1.85;;
36411;SDS011;22445;52.100;5.176;2023-02-03T11:18:57;8.35;;;1.65;;
36411;SDS011;22445;52.100;5.176;2023-02-03T11:24:21;6.32;;;1.60;;
36411;SDS011;22445;52.100;5.176;2023-02-03T11:26:50;8.68;;;2.10;;
36411;SDS011;22445;52.100;5.176;2023-02-03T11:29:28;6.80;;;1.80;;
36411;SDS011;22445;52.100;5.176;2023-02-03T11:31:56;5.57;;;1.60;;
36411;SDS011;22445;52.100;5.176;2023-02-03T11:34:27;8.75;;;2.30;;
36411;SDS011;22445;52.100;5.176;2023-02-03T11:43:08;6.93;;;1.85;;
36411;SDS011;22445;52.100;5.176;2023-02-03T11:45:41;9.20;;;1.88;;
36411;SDS011;22445;52.100;5.176;2023-02-03T11:57:26;6.68;;;1.70;;
36411;SDS011;22445;52.100;5.176;2023-02-03T12:00:17;7.80;;;1.70;;
36411;SDS011;22445;52.100;5.176;2023-02-03T12:20:04;6.50;;;1.77;;
36411;SDS011;22445;52.100;5.176;2023-02-03T12:30:29;8.93;;;2.20;;
36411;SDS011;22445;52.100;5.176;2023-02-03T12:33:01;8.23;;;1.83;;
36411;SDS011;22445;52.100;5.176;2023-02-03T12:35:32;9.32;;;2.38;;
36411;SDS011;22445;52.100;5.176;2023-02-03T12:38:08;7.00;;;1.92;;
36411;SDS011;22445;52.100;5.176;2023-02-03T12:40:58;8.10;;;2.13;;
36411;SDS011;22445;52.100;5.176;2023-02-03T12:43:46;9.35;;;2.47;;
36411;SDS011;22445;52.100;5.176;2023-02-03T12:52:09;8.50;;;2.00;;
36411;SDS011;22445;52.100;5.176;2023-02-03T12:54:49;6.32;;;2.00;;
36411;SDS011;22445;52.100;5.176;2023-02-03T12:57:38;10.07;;;3.13;;
36411;SDS011;22445;52.100;5.176;2023-02-03T13:09:40;8.30;;;2.80;;
36411;SDS011;22445;52.100;5.176;2023-02-03T13:12:19;12.45;;;2.90;;
36411;SDS011;22445;52.100;5.176;2023-02-03T13:15:27;8.27;;;2.35;;
36411;SDS011;22445;52.100;5.176;2023-02-03T13:18:00;7.25;;;2.28;;
36411;SDS011;22445;52.100;5.176;2023-02-03T13:20:51;6.35;;;1.98;;
36411;SDS011;22445;52.100;5.176;2023-02-03T13:23:18;14.52;;;2.83;;
36411;SDS011;22445;52.100;5.176;2023-02-03T13:26:34;11.00;;;2.92;;
36411;SDS011;22445;52.100;5.176;2023-02-03T13:29:02;9.77;;;2.22;;
36411;SDS011;22445;52.100;5.176;2023-02-03T13:44:04;10.18;;;2.20;;
36411;SDS011;22445;52.100;5.176;2023-02-03T13:46:30;11.45;;;2.70;;
36411;SDS011;22445;52.100;5.176;2023-02-03T13:48:58;9.77;;;2.22;;
36411;SDS011;22445;52.100;5.176;2023-02-03T13:51:27;13.70;;;2.95;;
36411;SDS011;22445;52.100;5.176;2023-02-03T13:54:03;10.82;;;2.17;;
36411;SDS011;22445;52.100;5.176;2023-02-03T13:56:29;12.20;;;2.42;;
36411;SDS011;22445;52.100;5.176;2023-02-03T14:02:50;14.05;;;2.92;;
36411;SDS011;22445;52.100;5.176;2023-02-03T14:05:06;11.35;;;2.17;;
36411;SDS011;22445;52.100;5.176;2023-02-03T14:07:38;13.52;;;2.67;;
36411;SDS011;22445;52.100;5.176;2023-02-03T14:10:08;11.73;;;2.70;;
36411;SDS011;22445;52.100;5.176;2023-02-03T14:12:57;12.13;;;2.70;;
36411;SDS011;22445;52.100;5.176;2023-02-03T14:21:19;13.52;;;2.85;;
36411;SDS011;22445;52.100;5.176;2023-02-03T14:23:51;12.05;;;2.22;;
36411;SDS011;22445;52.100;5.176;2023-02-03T14:26:23;17.33;;;3.00;;
36411;SDS011;22445;52.100;5.176;2023-02-03T14:28:54;14.27;;;2.55;;
36411;SDS011;22445;52.100;5.176;2023-02-03T14:31:20;12.18;;;2.83;;
36411;SDS011;22445;52.100;5.176;2023-02-03T14:36:49;13.48;;;2.85;;
36411;SDS011;22445;52.100;5.176;2023-02-03T14:57:51;14.75;;;3.05;;
36411;SDS011;22445;52.100;5.176;2023-02-03T15:14:14;11.98;;;2.53;;
36411;SDS011;22445;52.100;5.176;2023-02-03T15:23:20;15.70;;;2.58;;
36411;SDS011;22445;52.100;5.176;2023-02-03T15:29:15;22.25;;;2.90;;
36411;SDS011;22445;52.100;5.176;2023-02-03T15:32:07;14.32;;;2.65;;
36411;SDS011;22445;52.100;5.176;2023-02-03T15:34:37;13.68;;;3.60;;
36411;SDS011;22445;52.100;5.176;2023-02-03T15:37:16;16.92;;;4.03;;
36411;SDS011;22445;52.100;5.176;2023-02-03T15:39:47;17.27;;;2.67;;
36411;SDS011;22445;52.100;5.176;2023-02-03T15:42:22;14.30;;;3.33;;
36411;SDS011;22445;52.100;5.176;2023-02-03T15:51:08;10.80;;;2.67;;
36411;SDS011;22445;52.100;5.176;2023-02-03T15:54:00;13.52;;;3.65;;
36411;SDS011;22445;52.100;5.176;2023-02-03T16:05:05;12.43;;;2.45;;
36411;SDS011;22445;52.100;5.176;2023-02-03T16:07:44;13.02;;;2.58;;
36411;SDS011;22445;52.100;5.176;2023-02-03T16:15:55;19.73;;;3.80;;
36411;SDS011;22445;52.100;5.176;2023-02-03T16:18:29;13.38;;;3.08;;
36411;SDS011;22445;52.100;5.176;2023-02-03T16:20:57;19.85;;;3.40;;
36411;SDS011;22445;52.100;5.176;2023-02-03T16:23:23;15.20;;;3.10;;
36411;SDS011;22445;52.100;5.176;2023-02-03T16:32:15;15.77;;;3.10;;
36411;SDS011;22445;52.100;5.176;2023-02-03T16:35:01;14.38;;;3.28;;
36411;SDS011;22445;52.100;5.176;2023-02-03T16:37:45;19.10;;;3.80;;
36411;SDS011;22445;52.100;5.176;2023-02-03T16:40:29;17.42;;;4.30;;
36411;SDS011;22445;52.100;5.176;2023-02-03T16:43:14;12.73;;;3.00;;
36411;SDS011;22445;52.100;5.176;2023-02-03T16:45:59;13.00;;;3.95;;
36411;SDS011;22445;52.100;5.176;2023-02-03T16:48:43;18.48;;;3.28;;
36411;SDS011;22445;52.100;5.176;2023-02-03T16:51:48;15.82;;;3.00;;
36411;SDS011;22445;52.100;5.176;2023-02-03T16:54:13;18.38;;;3.17;;
36411;SDS011;22445;52.100;5.176;2023-02-03T16:56:41;20.17;;;3.60;;
36411;SDS011;22445;52.100;5.176;2023-02-03T16:59:07;20.08;;;4.03;;
36411;SDS011;22445;52.100;5.176;2023-02-03T17:01:33;12.07;;;3.72;;
36411;SDS011;22445;52.100;5.176;2023-02-03T17:03:59;18.88;;;3.88;;
36411;SDS011;22445;52.100;5.176;2023-02-03T17:06:25;16.55;;;3.70;;
36411;SDS011;22445;52.100;5.176;2023-02-03T17:08:51;17.63;;;2.88;;
36411;SDS011;22445;52.100;5.176;2023-02-03T17:11:18;12.88;;;2.90;;
36411;SDS011;22445;52.100;5.176;2023-02-03T17:13:45;14.98;;;3.50;;
36411;SDS011;22445;52.100;5.176;2023-02-03T17:16:15;22.10;;;4.80;;
36411;SDS011;22445;52.100;5.176;2023-02-03T17:18:42;17.00;;;3.38;;
36411;SDS011;22445;52.100;5.176;2023-02-03T17:21:09;18.25;;;3.88;;
36411;SDS011;22445;52.100;5.176;2023-02-03T17:23:35;16.90;;;3.60;;
36411;SDS011;22445;52.100;5.176;2023-02-03T17:26:01;21.17;;;4.78;;
36411;SDS011;22445;52.100;5.176;2023-02-03T17:28:27;18.40;;;3.90;;
36411;SDS011;22445;52.100;5.176;2023-02-03T17:30:59;15.43;;;3.63;;
36411;SDS011;22445;52.100;5.176;2023-02-03T17:33:27;13.38;;;3.67;;
36411;SDS011;22445;52.100;5.176;2023-02-03T17:36:00;17.45;;;3.30;;
36411;SDS011;22445;52.100;5.176;2023-02-03T17:38:48;15.32;;;2.95;;
36411;SDS011;22445;52.100;5.176;2023-02-03T17:41:19;10.82;;;3.55;;
36411;SDS011;22445;52.100;5.176;2023-02-03T17:43:45;18.60;;;3.50;;
36411;SDS011;22445;52.100;5.176;2023-02-03T17:46:13;26.70;;;4.38;;
36411;SDS011;22445;52.100;5.176;2023-02-03T17:48:40;22.65;;;4.32;;
36411;SDS011;22445;52.100;5.176;2023-02-03T17:51:06;17.13;;;3.30;;
36411;SDS011;22445;52.100;5.176;2023-02-03T17:53:33;17.70;;;3.85;;
36411;SDS011;22445;52.100;5.176;2023-02-03T17:56:14;16.73;;;4.10;;
36411;SDS011;22445;52.100;5.176;2023-02-03T17:58:41;23.58;;;4.35;;
36411;SDS011;22445;52.100;5.176;2023-02-03T18:01:11;21.48;;;4.00;;
36411;SDS011;22445;52.100;5.176;2023-02-03T18:03:41;16.70;;;2.92;;
36411;SDS011;22445;52.100;5.176;2023-02-03T18:06:10;22.98;;;3.78;;
36411;SDS011;22445;52.100;5.176;2023-02-03T18:08:37;23.67;;;4.35;;
36411;SDS011;22445;52.100;5.176;2023-02-03T18:11:02;13.70;;;3.22;;
36411;SDS011;22445;52.100;5.176;2023-02-03T18:13:28;17.77;;;4.30;;
36411;SDS011;22445;52.100;5.176;2023-02-03T18:15:57;20.23;;;4.22;;
36411;SDS011;22445;52.100;5.176;2023-02-03T18:18:23;17.67;;;3.58;;
36411;SDS011;22445;52.100;5.176;2023-02-03T18:20:50;17.35;;;3.13;;
36411;SDS011;22445;52.100;5.176;2023-02-03T18:23:16;19.45;;;3.92;;